sensor_id;sensor_type;location;lat;lon;timestamp;temperature;humidity
52555;DHT22;38455;52.710;6.502;2023-09-19T00:00:37;15.20;99.90
52555;DHT22;38455;52.710;6.502;2023-09-19T00:03:03;15.10;99.90
52555;DHT22;38455;52.710;6.502;2023-09-19T00:05:33;15.00;99.90
52555;DHT22;38455;52.710;6.502;2023-09-19T00:08:00;15.00;99.90
52555;DHT22;38455;52.710;6.502;2023-09-19T00:10:27;14.90;99.90
52555;DHT22;38455;52.710;6.502;2023-09-19T00:12:57;14.90;99.90
52555;DHT22;38455;52.710;6.502;2023-09-19T00:15:25;14.80;99.90
52555;DHT22;38455;52.710;6.502;2023-09-19T00:17:54;14.80;99.90
52555;DHT22;38455;52.710;6.502;2023-09-19T00:20:20;14.80;99.90
52555;DHT22;38455;52.710;6.502;2023-09-19T00:22:49;14.80;99.90
52555;DHT22;38455;52.710;6.502;2023-09-19T00:25:16;14.80;99.90
52555;DHT22;38455;52.710;6.502;2023-09-19T00:27:41;14.80;99.90
52555;DHT22;38455;52.710;6.502;2023-09-19T00:30:09;14.70;99.90
52555;DHT22;38455;52.710;6.502;2023-09-19T00:32:50;14.70;99.90
52555;DHT22;38455;52.710;6.502;2023-09-19T00:35:20;14.70;99.90
52555;DHT22;38455;52.710;6.502;2023-09-19T00:37:49;14.70;99.90
52555;DHT22;38455;52.710;6.502;2023-09-19T00:40:15;14.60;99.90
52555;DHT22;38455;52.710;6.502;2023-09-19T00:42:48;14.60;99.90
52555;DHT22;38455;52.710;6.502;2023-09-19T00:45:16;14.60;99.90
52555;DHT22;38455;52.710;6.502;2023-09-19T00:47:50;14.50;99.90
52555;DHT22;38455;52.710;6.502;2023-09-19T00:50:23;14.60;99.90
52555;DHT22;38455;52.710;6.502;2023-09-19T00:52:53;14.50;99.90
52555;DHT22;38455;52.710;6.502;2023-09-19T00:55:21;14.50;99.90
52555;DHT22;38455;52.710;6.502;2023-09-19T00:57:49;14.50;99.90
52555;DHT22;38455;52.710;6.502;2023-09-19T01:00:16;14.50;99.90
52555;DHT22;38455;52.710;6.502;2023-09-19T01:02:45;14.50;99.90
52555;DHT22;38455;52.710;6.502;2023-09-19T01:05:11;14.50;99.90
52555;DHT22;38455;52.710;6.502;2023-09-19T01:07:41;14.50;99.90
52555;DHT22;38455;52.710;6.502;2023-09-19T01:10:12;14.50;99.90
52555;DHT22;38455;52.710;6.502;2023-09-19T01:29:45;14.50;99.90
52555;DHT22;38455;52.710;6.502;2023-09-19T01:32:14;14.50;99.90
52555;DHT22;38455;52.710;6.502;2023-09-19T01:37:15;14.50;99.90
52555;DHT22;38455;52.710;6.502;2023-09-19T01:39:46;14.50;99.90
52555;DHT22;38455;52.710;6.502;2023-09-19T01:42:50;14.40;99.90
52555;DHT22;38455;52.710;6.502;2023-09-19T01:45:15;14.40;99.90
52555;DHT22;38455;52.710;6.502;2023-09-19T01:47:50;14.40;99.90
52555;DHT22;38455;52.710;6.502;2023-09-19T01:50:33;14.30;99.90
52555;DHT22;38455;52.710;6.502;2023-09-19T01:53:21;14.30;99.90
52555;DHT22;38455;52.710;6.502;2023-09-19T01:55:50;14.30;99.90
52555;DHT22;38455;52.710;6.502;2023-09-19T02:01:03;14.20;99.90
52555;DHT22;38455;52.710;6.502;2023-09-19T02:03:31;14.20;99.90
52555;DHT22;38455;52.710;6.502;2023-09-19T02:05:59;14.20;99.90
52555;DHT22;38455;52.710;6.502;2023-09-19T02:08:26;14.20;99.90
52555;DHT22;38455;52.710;6.502;2023-09-19T02:10:52;14.20;99.90
52555;DHT22;38455;52.710;6.502;2023-09-19T02:13:19;14.10;99.90
52555;DHT22;38455;52.710;6.502;2023-09-19T02:15:46;14.10;99.90
52555;DHT22;38455;52.710;6.502;2023-09-19T02:18:12;14.10;99.90
52555;DHT22;38455;52.710;6.502;2023-09-19T02:20:39;14.10;99.90
52555;DHT22;38455;52.710;6.502;2023-09-19T02:23:05;14.00;99.90
52555;DHT22;38455;52.710;6.502;2023-09-19T02:25:31;14.00;99.90
52555;DHT22;38455;52.710;6.502;2023-09-19T02:28:01;14.00;99.90
52555;DHT22;38455;52.710;6.502;2023-09-19T02:30:29;14.00;99.90
52555;DHT22;38455;52.710;6.502;2023-09-19T02:32:55;13.90;99.90
52555;DHT22;38455;52.710;6.502;2023-09-19T02:35:21;13.90;99.90
52555;DHT22;38455;52.710;6.502;2023-09-19T02:37:50;13.90;99.90
52555;DHT22;38455;52.710;6.502;2023-09-19T02:40:16;13.90;99.90
52555;DHT22;38455;52.710;6.502;2023-09-19T02:42:48;13.90;99.90
52555;DHT22;38455;52.710;6.502;2023-09-19T02:45:16;13.90;99.90
52555;DHT22;38455;52.710;6.502;2023-09-19T02:47:44;13.90;99.90
52555;DHT22;38455;52.710;6.502;2023-09-19T02:50:10;13.90;99.90
52555;DHT22;38455;52.710;6.502;2023-09-19T02:52:42;13.90;99.90
52555;DHT22;38455;52.710;6.502;2023-09-19T02:55:12;13.90;99.90
52555;DHT22;38455;52.710;6.502;2023-09-19T02:57:40;13.90;99.90
52555;DHT22;38455;52.710;6.502;2023-09-19T03:00:09;13.90;99.90
52555;DHT22;38455;52.710;6.502;2023-09-19T03:02:37;13.90;99.90
52555;DHT22;38455;52.710;6.502;2023-09-19T03:05:05;13.90;99.90
52555;DHT22;38455;52.710;6.502;2023-09-19T03:07:32;13.90;99.90
52555;DHT22;38455;52.710;6.502;2023-09-19T03:09:57;13.90;99.90
52555;DHT22;38455;52.710;6.502;2023-09-19T03:12:23;13.90;99.90
52555;DHT22;38455;52.710;6.502;2023-09-19T03:14:49;13.80;99.90
52555;DHT22;38455;52.710;6.502;2023-09-19T03:17:16;13.80;99.90
52555;DHT22;38455;52.710;6.502;2023-09-19T03:19:44;13.80;99.90
52555;DHT22;38455;52.710;6.502;2023-09-19T03:22:10;13.80;99.90
52555;DHT22;38455;52.710;6.502;2023-09-19T03:24:36;13.90;99.90
52555;DHT22;38455;52.710;6.502;2023-09-19T03:27:03;13.90;99.90
52555;DHT22;38455;52.710;6.502;2023-09-19T03:29:29;13.90;99.90
52555;DHT22;38455;52.710;6.502;2023-09-19T03:31:55;14.00;99.90
52555;DHT22;38455;52.710;6.502;2023-09-19T03:34:21;14.00;99.90
52555;DHT22;38455;52.710;6.502;2023-09-19T03:36:47;14.10;99.90
52555;DHT22;38455;52.710;6.502;2023-09-19T03:39:12;14.10;99.90
52555;DHT22;38455;52.710;6.502;2023-09-19T03:41:41;14.10;99.90
52555;DHT22;38455;52.710;6.502;2023-09-19T03:44:07;14.10;99.90
52555;DHT22;38455;52.710;6.502;2023-09-19T03:46:33;14.10;99.90
52555;DHT22;38455;52.710;6.502;2023-09-19T03:49:00;14.20;99.90
52555;DHT22;38455;52.710;6.502;2023-09-19T03:51:26;14.20;99.90
52555;DHT22;38455;52.710;6.502;2023-09-19T03:53:52;14.20;99.90
52555;DHT22;38455;52.710;6.502;2023-09-19T03:56:17;14.20;99.90
52555;DHT22;38455;52.710;6.502;2023-09-19T03:58:43;14.30;99.90
52555;DHT22;38455;52.710;6.502;2023-09-19T04:01:09;14.30;99.90
52555;DHT22;38455;52.710;6.502;2023-09-19T04:03:35;14.30;99.90
52555;DHT22;38455;52.710;6.502;2023-09-19T04:06:12;14.30;99.90
52555;DHT22;38455;52.710;6.502;2023-09-19T04:08:38;14.20;99.90
52555;DHT22;38455;52.710;6.502;2023-09-19T04:11:04;14.20;99.90
52555;DHT22;38455;52.710;6.502;2023-09-19T04:13:29;14.20;99.90
52555;DHT22;38455;52.710;6.502;2023-09-19T04:15:55;14.20;99.90
52555;DHT22;38455;52.710;6.502;2023-09-19T04:18:21;14.10;99.90
52555;DHT22;38455;52.710;6.502;2023-09-19T04:20:49;14.10;99.90
52555;DHT22;38455;52.710;6.502;2023-09-19T04:23:15;14.10;99.90
52555;DHT22;38455;52.710;6.502;2023-09-19T04:25:41;14.00;99.90
52555;DHT22;38455;52.710;6.502;2023-09-19T04:28:07;14.00;99.90
52555;DHT22;38455;52.710;6.502;2023-09-19T04:30:32;14.00;99.90
52555;DHT22;38455;52.710;6.502;2023-09-19T04:32:58;13.90;99.90
52555;DHT22;38455;52.710;6.502;2023-09-19T04:35:27;13.90;99.90
52555;DHT22;38455;52.710;6.502;2023-09-19T04:37:54;13.90;99.90
52555;DHT22;38455;52.710;6.502;2023-09-19T04:40:20;13.90;99.90
52555;DHT22;38455;52.710;6.502;2023-09-19T04:42:53;13.80;99.90
52555;DHT22;38455;52.710;6.502;2023-09-19T04:45:22;13.80;99.90
52555;DHT22;38455;52.710;6.502;2023-09-19T04:47:48;13.70;99.90
52555;DHT22;38455;52.710;6.502;2023-09-19T04:50:13;13.70;99.90
52555;DHT22;38455;52.710;6.502;2023-09-19T04:52:45;13.70;99.90
52555;DHT22;38455;52.710;6.502;2023-09-19T04:55:14;13.70;99.90
52555;DHT22;38455;52.710;6.502;2023-09-19T04:57:48;13.70;99.90
52555;DHT22;38455;52.710;6.502;2023-09-19T05:00:17;13.70;99.90
52555;DHT22;38455;52.710;6.502;2023-09-19T05:02:48;13.70;99.90
52555;DHT22;38455;52.710;6.502;2023-09-19T05:05:14;13.70;99.90
52555;DHT22;38455;52.710;6.502;2023-09-19T05:07:42;13.70;99.90
52555;DHT22;38455;52.710;6.502;2023-09-19T05:10:09;13.70;99.90
52555;DHT22;38455;52.710;6.502;2023-09-19T05:12:37;13.70;99.90
52555;DHT22;38455;52.710;6.502;2023-09-19T05:15:03;13.70;99.90
52555;DHT22;38455;52.710;6.502;2023-09-19T05:17:30;13.60;99.90
52555;DHT22;38455;52.710;6.502;2023-09-19T05:19:57;13.60;99.90
52555;DHT22;38455;52.710;6.502;2023-09-19T05:22:26;13.60;99.90
52555;DHT22;38455;52.710;6.502;2023-09-19T05:24:52;13.60;99.90
52555;DHT22;38455;52.710;6.502;2023-09-19T05:27:19;13.60;99.90
52555;DHT22;38455;52.710;6.502;2023-09-19T05:29:46;13.60;99.90
52555;DHT22;38455;52.710;6.502;2023-09-19T05:32:12;13.60;99.90
52555;DHT22;38455;52.710;6.502;2023-09-19T05:34:38;13.50;99.90
52555;DHT22;38455;52.710;6.502;2023-09-19T05:37:04;13.50;99.90
52555;DHT22;38455;52.710;6.502;2023-09-19T05:39:33;13.50;99.90
52555;DHT22;38455;52.710;6.502;2023-09-19T05:41:59;13.50;99.90
52555;DHT22;38455;52.710;6.502;2023-09-19T05:44:28;13.50;99.90
52555;DHT22;38455;52.710;6.502;2023-09-19T05:46:54;13.50;99.90
52555;DHT22;38455;52.710;6.502;2023-09-19T05:49:22;13.40;99.90
52555;DHT22;38455;52.710;6.502;2023-09-19T05:51:50;13.40;99.90
52555;DHT22;38455;52.710;6.502;2023-09-19T05:54:19;13.50;99.90
52555;DHT22;38455;52.710;6.502;2023-09-19T05:56:45;13.50;99.90
52555;DHT22;38455;52.710;6.502;2023-09-19T05:59:12;13.60;99.90
52555;DHT22;38455;52.710;6.502;2023-09-19T06:01:42;13.70;99.90
52555;DHT22;38455;52.710;6.502;2023-09-19T06:04:07;13.80;99.90
52555;DHT22;38455;52.710;6.502;2023-09-19T06:06:33;13.90;99.90
52555;DHT22;38455;52.710;6.502;2023-09-19T06:09:02;14.00;99.90
52555;DHT22;38455;52.710;6.502;2023-09-19T06:11:31;14.10;99.90
52555;DHT22;38455;52.710;6.502;2023-09-19T06:14:01;14.20;99.90
52555;DHT22;38455;52.710;6.502;2023-09-19T06:16:28;14.20;99.90
52555;DHT22;38455;52.710;6.502;2023-09-19T06:18:55;14.30;99.90
52555;DHT22;38455;52.710;6.502;2023-09-19T06:21:22;14.50;99.90
52555;DHT22;38455;52.710;6.502;2023-09-19T06:23:48;14.70;99.90
52555;DHT22;38455;52.710;6.502;2023-09-19T06:26:14;14.80;99.90
52555;DHT22;38455;52.710;6.502;2023-09-19T06:28:40;14.70;99.90
52555;DHT22;38455;52.710;6.502;2023-09-19T06:31:06;14.70;99.90
52555;DHT22;38455;52.710;6.502;2023-09-19T06:33:38;14.60;99.90
52555;DHT22;38455;52.710;6.502;2023-09-19T06:36:05;14.60;99.90
52555;DHT22;38455;52.710;6.502;2023-09-19T06:38:31;14.50;99.90
52555;DHT22;38455;52.710;6.502;2023-09-19T06:40:59;14.50;99.90
52555;DHT22;38455;52.710;6.502;2023-09-19T06:43:26;14.50;99.90
52555;DHT22;38455;52.710;6.502;2023-09-19T06:45:54;14.50;99.90
52555;DHT22;38455;52.710;6.502;2023-09-19T06:48:20;14.50;99.90
52555;DHT22;38455;52.710;6.502;2023-09-19T06:50:46;14.60;99.90
52555;DHT22;38455;52.710;6.502;2023-09-19T06:53:13;14.60;99.90
52555;DHT22;38455;52.710;6.502;2023-09-19T06:55:39;14.60;99.90
52555;DHT22;38455;52.710;6.502;2023-09-19T06:58:05;14.70;99.90
52555;DHT22;38455;52.710;6.502;2023-09-19T07:00:36;15.00;99.90
52555;DHT22;38455;52.710;6.502;2023-09-19T07:03:04;15.10;99.90
52555;DHT22;38455;52.710;6.502;2023-09-19T07:05:36;15.10;99.90
52555;DHT22;38455;52.710;6.502;2023-09-19T07:08:03;15.10;99.90
52555;DHT22;38455;52.710;6.502;2023-09-19T07:10:29;15.70;99.90
52555;DHT22;38455;52.710;6.502;2023-09-19T07:12:59;17.00;99.90
52555;DHT22;38455;52.710;6.502;2023-09-19T07:15:25;17.80;99.90
52555;DHT22;38455;52.710;6.502;2023-09-19T07:17:52;18.00;99.90
52555;DHT22;38455;52.710;6.502;2023-09-19T07:20:19;17.60;99.90
52555;DHT22;38455;52.710;6.502;2023-09-19T07:22:45;17.10;99.90
52555;DHT22;38455;52.710;6.502;2023-09-19T07:25:12;16.80;99.90
52555;DHT22;38455;52.710;6.502;2023-09-19T07:27:43;17.00;99.90
52555;DHT22;38455;52.710;6.502;2023-09-19T07:30:09;17.30;99.90
52555;DHT22;38455;52.710;6.502;2023-09-19T07:32:37;17.20;99.90
52555;DHT22;38455;52.710;6.502;2023-09-19T07:35:04;17.20;99.90
52555;DHT22;38455;52.710;6.502;2023-09-19T07:37:31;17.50;99.90
52555;DHT22;38455;52.710;6.502;2023-09-19T07:40:02;18.00;99.90
52555;DHT22;38455;52.710;6.502;2023-09-19T07:42:35;18.30;99.90
52555;DHT22;38455;52.710;6.502;2023-09-19T07:45:02;18.60;99.90
52555;DHT22;38455;52.710;6.502;2023-09-19T07:47:29;19.30;99.90
52555;DHT22;38455;52.710;6.502;2023-09-19T07:49:55;20.00;99.90
52555;DHT22;38455;52.710;6.502;2023-09-19T07:52:21;20.30;99.90
52555;DHT22;38455;52.710;6.502;2023-09-19T07:54:48;20.30;99.90
52555;DHT22;38455;52.710;6.502;2023-09-19T07:57:15;19.90;99.90
52555;DHT22;38455;52.710;6.502;2023-09-19T07:59:41;19.80;99.90
52555;DHT22;38455;52.710;6.502;2023-09-19T08:02:10;19.90;99.90
52555;DHT22;38455;52.710;6.502;2023-09-19T08:04:43;20.30;99.90
52555;DHT22;38455;52.710;6.502;2023-09-19T08:07:11;20.50;99.90
52555;DHT22;38455;52.710;6.502;2023-09-19T08:09:36;20.70;99.90
52555;DHT22;38455;52.710;6.502;2023-09-19T08:12:05;20.70;99.90
52555;DHT22;38455;52.710;6.502;2023-09-19T08:14:30;20.80;99.90
52555;DHT22;38455;52.710;6.502;2023-09-19T08:16:57;20.60;99.90
52555;DHT22;38455;52.710;6.502;2023-09-19T08:19:26;20.70;99.90
52555;DHT22;38455;52.710;6.502;2023-09-19T08:21:57;20.90;99.90
52555;DHT22;38455;52.710;6.502;2023-09-19T08:24:30;21.00;99.90
52555;DHT22;38455;52.710;6.502;2023-09-19T08:26:56;20.90;99.90
52555;DHT22;38455;52.710;6.502;2023-09-19T08:29:23;21.00;99.90
52555;DHT22;38455;52.710;6.502;2023-09-19T08:31:54;21.20;99.90
52555;DHT22;38455;52.710;6.502;2023-09-19T08:34:23;21.40;99.90
52555;DHT22;38455;52.710;6.502;2023-09-19T08:36:53;21.20;99.90
52555;DHT22;38455;52.710;6.502;2023-09-19T08:39:22;20.70;99.90
52555;DHT22;38455;52.710;6.502;2023-09-19T08:41:48;20.60;99.90
52555;DHT22;38455;52.710;6.502;2023-09-19T08:44:14;20.80;99.90
52555;DHT22;38455;52.710;6.502;2023-09-19T08:46:41;20.90;99.90
52555;DHT22;38455;52.710;6.502;2023-09-19T08:49:28;21.40;99.90
52555;DHT22;38455;52.710;6.502;2023-09-19T08:52:28;21.80;99.90
52555;DHT22;38455;52.710;6.502;2023-09-19T08:55:01;21.90;99.90
52555;DHT22;38455;52.710;6.502;2023-09-19T08:57:33;22.20;99.90
52555;DHT22;38455;52.710;6.502;2023-09-19T09:00:04;22.50;99.90
52555;DHT22;38455;52.710;6.502;2023-09-19T09:02:40;23.00;99.90
52555;DHT22;38455;52.710;6.502;2023-09-19T09:05:09;23.50;99.90
52555;DHT22;38455;52.710;6.502;2023-09-19T09:07:37;23.90;99.90
52555;DHT22;38455;52.710;6.502;2023-09-19T09:10:04;24.20;99.90
52555;DHT22;38455;52.710;6.502;2023-09-19T09:12:30;24.50;99.90
52555;DHT22;38455;52.710;6.502;2023-09-19T09:14:56;24.60;99.90
52555;DHT22;38455;52.710;6.502;2023-09-19T09:17:26;25.00;99.90
52555;DHT22;38455;52.710;6.502;2023-09-19T09:19:52;25.00;99.90
52555;DHT22;38455;52.710;6.502;2023-09-19T09:22:18;25.40;99.90
52555;DHT22;38455;52.710;6.502;2023-09-19T09:24:53;25.30;99.90
52555;DHT22;38455;52.710;6.502;2023-09-19T09:27:20;25.60;99.30
52555;DHT22;38455;52.710;6.502;2023-09-19T09:29:50;25.30;99.30
52555;DHT22;38455;52.710;6.502;2023-09-19T09:32:20;24.80;99.60
52555;DHT22;38455;52.710;6.502;2023-09-19T09:34:52;25.00;99.00
52555;DHT22;38455;52.710;6.502;2023-09-19T09:37:19;25.00;99.00
52555;DHT22;38455;52.710;6.502;2023-09-19T09:39:56;24.60;99.10
52555;DHT22;38455;52.710;6.502;2023-09-19T09:42:34;24.50;98.70
52555;DHT22;38455;52.710;6.502;2023-09-19T09:45:23;24.10;99.10
52555;DHT22;38455;52.710;6.502;2023-09-19T09:47:59;24.10;99.30
52555;DHT22;38455;52.710;6.502;2023-09-19T09:50:30;23.70;99.90
52555;DHT22;38455;52.710;6.502;2023-09-19T09:53:21;23.60;99.90
52555;DHT22;38455;52.710;6.502;2023-09-19T09:56:06;22.90;99.90
52555;DHT22;38455;52.710;6.502;2023-09-19T09:58:37;22.40;99.90
52555;DHT22;38455;52.710;6.502;2023-09-19T10:01:07;22.00;99.90
52555;DHT22;38455;52.710;6.502;2023-09-19T10:03:40;21.80;99.90
52555;DHT22;38455;52.710;6.502;2023-09-19T10:06:11;21.90;99.90
52555;DHT22;38455;52.710;6.502;2023-09-19T10:11:44;22.40;99.90
52555;DHT22;38455;52.710;6.502;2023-09-19T10:14:15;22.20;99.90
52555;DHT22;38455;52.710;6.502;2023-09-19T10:16:47;22.30;99.90
52555;DHT22;38455;52.710;6.502;2023-09-19T10:19:23;22.80;99.90
52555;DHT22;38455;52.710;6.502;2023-09-19T10:21:50;23.20;99.90
52555;DHT22;38455;52.710;6.502;2023-09-19T10:24:19;23.50;99.90
52555;DHT22;38455;52.710;6.502;2023-09-19T10:26:46;23.70;99.90
52555;DHT22;38455;52.710;6.502;2023-09-19T10:29:15;23.50;99.80
52555;DHT22;38455;52.710;6.502;2023-09-19T10:31:44;23.50;99.80
52555;DHT22;38455;52.710;6.502;2023-09-19T10:34:15;23.60;99.00
52555;DHT22;38455;52.710;6.502;2023-09-19T10:36:44;23.70;99.00
52555;DHT22;38455;52.710;6.502;2023-09-19T10:39:11;23.10;99.10
52555;DHT22;38455;52.710;6.502;2023-09-19T10:41:39;22.80;99.90
52555;DHT22;38455;52.710;6.502;2023-09-19T10:44:05;22.50;99.90
52555;DHT22;38455;52.710;6.502;2023-09-19T10:46:34;22.80;99.90
52555;DHT22;38455;52.710;6.502;2023-09-19T10:49:01;23.30;99.90
52555;DHT22;38455;52.710;6.502;2023-09-19T10:51:33;23.30;99.60
52555;DHT22;38455;52.710;6.502;2023-09-19T10:54:12;22.80;99.90
52555;DHT22;38455;52.710;6.502;2023-09-19T10:56:43;22.10;99.90
52555;DHT22;38455;52.710;6.502;2023-09-19T10:59:16;21.60;99.90
52555;DHT22;38455;52.710;6.502;2023-09-19T11:01:50;21.40;99.90
52555;DHT22;38455;52.710;6.502;2023-09-19T11:04:33;21.90;99.90
52555;DHT22;38455;52.710;6.502;2023-09-19T11:07:13;22.20;99.90
52555;DHT22;38455;52.710;6.502;2023-09-19T11:15:03;23.30;99.70
52555;DHT22;38455;52.710;6.502;2023-09-19T11:17:38;22.90;99.90
52555;DHT22;38455;52.710;6.502;2023-09-19T11:30:40;22.40;99.90
52555;DHT22;38455;52.710;6.502;2023-09-19T11:43:51;22.00;99.90
52555;DHT22;38455;52.710;6.502;2023-09-19T11:46:18;21.90;99.90
52555;DHT22;38455;52.710;6.502;2023-09-19T11:48:50;21.60;99.90
52555;DHT22;38455;52.710;6.502;2023-09-19T11:51:17;21.40;99.90
52555;DHT22;38455;52.710;6.502;2023-09-19T11:53:58;21.20;99.90
52555;DHT22;38455;52.710;6.502;2023-09-19T11:56:27;21.00;99.90
52555;DHT22;38455;52.710;6.502;2023-09-19T11:58:55;20.60;99.90
52555;DHT22;38455;52.710;6.502;2023-09-19T12:03:56;20.50;99.90
52555;DHT22;38455;52.710;6.502;2023-09-19T12:06:24;20.60;99.90
52555;DHT22;38455;52.710;6.502;2023-09-19T12:08:50;20.60;99.90
52555;DHT22;38455;52.710;6.502;2023-09-19T12:11:19;20.70;99.90
52555;DHT22;38455;52.710;6.502;2023-09-19T12:13:47;20.90;99.90
52555;DHT22;38455;52.710;6.502;2023-09-19T12:16:16;21.00;99.90
52555;DHT22;38455;52.710;6.502;2023-09-19T12:18:43;20.90;99.90
52555;DHT22;38455;52.710;6.502;2023-09-19T12:21:29;20.70;99.90
52555;DHT22;38455;52.710;6.502;2023-09-19T12:24:04;20.70;99.90
52555;DHT22;38455;52.710;6.502;2023-09-19T12:26:37;20.70;99.90
52555;DHT22;38455;52.710;6.502;2023-09-19T12:29:03;20.50;99.90
52555;DHT22;38455;52.710;6.502;2023-09-19T12:31:31;20.30;99.90
52555;DHT22;38455;52.710;6.502;2023-09-19T12:34:01;20.40;99.90
52555;DHT22;38455;52.710;6.502;2023-09-19T12:36:27;20.50;99.90
52555;DHT22;38455;52.710;6.502;2023-09-19T12:38:59;20.80;99.90
52555;DHT22;38455;52.710;6.502;2023-09-19T12:41:27;20.90;99.90
52555;DHT22;38455;52.710;6.502;2023-09-19T12:43:53;20.90;99.90
52555;DHT22;38455;52.710;6.502;2023-09-19T12:46:21;21.00;99.90
52555;DHT22;38455;52.710;6.502;2023-09-19T12:49:19;20.80;99.90
52555;DHT22;38455;52.710;6.502;2023-09-19T12:51:46;20.80;99.90
52555;DHT22;38455;52.710;6.502;2023-09-19T12:54:13;20.70;99.90
52555;DHT22;38455;52.710;6.502;2023-09-19T12:56:45;20.80;99.90
52555;DHT22;38455;52.710;6.502;2023-09-19T12:59:14;20.70;99.90
52555;DHT22;38455;52.710;6.502;2023-09-19T13:01:41;20.60;99.90
52555;DHT22;38455;52.710;6.502;2023-09-19T13:04:20;20.40;99.90
52555;DHT22;38455;52.710;6.502;2023-09-19T13:06:51;20.20;99.90
52555;DHT22;38455;52.710;6.502;2023-09-19T13:09:22;20.10;99.90
52555;DHT22;38455;52.710;6.502;2023-09-19T13:11:48;20.10;99.90
52555;DHT22;38455;52.710;6.502;2023-09-19T13:14:26;20.00;99.90
52555;DHT22;38455;52.710;6.502;2023-09-19T13:17:07;20.00;99.90
52555;DHT22;38455;52.710;6.502;2023-09-19T13:19:51;20.00;99.90
52555;DHT22;38455;52.710;6.502;2023-09-19T13:22:40;20.10;99.90
52555;DHT22;38455;52.710;6.502;2023-09-19T13:25:14;20.10;99.90
52555;DHT22;38455;52.710;6.502;2023-09-19T13:27:42;20.00;99.90
52555;DHT22;38455;52.710;6.502;2023-09-19T13:30:11;19.90;99.90
52555;DHT22;38455;52.710;6.502;2023-09-19T13:32:36;19.90;99.90
52555;DHT22;38455;52.710;6.502;2023-09-19T13:35:05;19.80;99.90
52555;DHT22;38455;52.710;6.502;2023-09-19T13:37:33;19.70;99.90
52555;DHT22;38455;52.710;6.502;2023-09-19T13:40:01;19.70;99.90
52555;DHT22;38455;52.710;6.502;2023-09-19T13:42:27;19.60;99.90
52555;DHT22;38455;52.710;6.502;2023-09-19T13:44:55;19.60;99.90
52555;DHT22;38455;52.710;6.502;2023-09-19T13:47:21;19.70;99.90
52555;DHT22;38455;52.710;6.502;2023-09-19T13:49:50;19.70;99.90
52555;DHT22;38455;52.710;6.502;2023-09-19T13:52:19;19.80;99.90
52555;DHT22;38455;52.710;6.502;2023-09-19T13:54:44;19.80;99.90
52555;DHT22;38455;52.710;6.502;2023-09-19T13:57:10;19.90;99.90
52555;DHT22;38455;52.710;6.502;2023-09-19T13:59:36;19.90;99.90
52555;DHT22;38455;52.710;6.502;2023-09-19T14:02:03;19.90;99.90
52555;DHT22;38455;52.710;6.502;2023-09-19T14:04:29;19.90;99.90
52555;DHT22;38455;52.710;6.502;2023-09-19T14:06:54;19.90;99.90
52555;DHT22;38455;52.710;6.502;2023-09-19T14:09:20;20.00;99.90
52555;DHT22;38455;52.710;6.502;2023-09-19T14:11:46;20.00;99.90
52555;DHT22;38455;52.710;6.502;2023-09-19T14:14:13;20.00;99.90
52555;DHT22;38455;52.710;6.502;2023-09-19T14:16:40;20.10;99.90
52555;DHT22;38455;52.710;6.502;2023-09-19T14:19:07;20.10;99.90
52555;DHT22;38455;52.710;6.502;2023-09-19T14:21:33;20.10;99.90
52555;DHT22;38455;52.710;6.502;2023-09-19T14:23:59;20.00;99.90
52555;DHT22;38455;52.710;6.502;2023-09-19T14:26:25;20.00;99.90
52555;DHT22;38455;52.710;6.502;2023-09-19T14:28:50;20.00;99.90
52555;DHT22;38455;52.710;6.502;2023-09-19T14:31:16;20.00;99.90
52555;DHT22;38455;52.710;6.502;2023-09-19T14:33:42;20.10;99.90
52555;DHT22;38455;52.710;6.502;2023-09-19T14:36:08;20.00;99.90
52555;DHT22;38455;52.710;6.502;2023-09-19T14:38:37;19.90;99.90
52555;DHT22;38455;52.710;6.502;2023-09-19T14:41:04;19.80;99.90
52555;DHT22;38455;52.710;6.502;2023-09-19T14:43:30;19.70;99.90
52555;DHT22;38455;52.710;6.502;2023-09-19T14:46:04;19.70;99.90
52555;DHT22;38455;52.710;6.502;2023-09-19T14:48:30;19.60;99.90
52555;DHT22;38455;52.710;6.502;2023-09-19T14:51:07;19.60;99.90
52555;DHT22;38455;52.710;6.502;2023-09-19T14:53:37;19.60;99.90
52555;DHT22;38455;52.710;6.502;2023-09-19T14:56:04;19.50;99.90
52555;DHT22;38455;52.710;6.502;2023-09-19T14:58:31;19.60;99.90
52555;DHT22;38455;52.710;6.502;2023-09-19T15:01:11;19.60;99.90
52555;DHT22;38455;52.710;6.502;2023-09-19T15:03:37;19.60;99.90
52555;DHT22;38455;52.710;6.502;2023-09-19T15:06:07;19.60;99.90
52555;DHT22;38455;52.710;6.502;2023-09-19T15:08:35;19.60;99.90
52555;DHT22;38455;52.710;6.502;2023-09-19T15:11:13;19.60;99.90
52555;DHT22;38455;52.710;6.502;2023-09-19T15:13:41;19.70;99.90
52555;DHT22;38455;52.710;6.502;2023-09-19T15:16:08;19.80;99.90
52555;DHT22;38455;52.710;6.502;2023-09-19T15:18:42;19.80;99.90
52555;DHT22;38455;52.710;6.502;2023-09-19T15:21:10;19.70;99.90
52555;DHT22;38455;52.710;6.502;2023-09-19T15:23:37;19.70;99.90
52555;DHT22;38455;52.710;6.502;2023-09-19T15:26:07;19.70;99.90
52555;DHT22;38455;52.710;6.502;2023-09-19T15:28:34;19.60;99.90
52555;DHT22;38455;52.710;6.502;2023-09-19T15:31:01;19.60;99.90
52555;DHT22;38455;52.710;6.502;2023-09-19T15:33:27;19.50;99.90
52555;DHT22;38455;52.710;6.502;2023-09-19T15:39:03;19.40;99.90
52555;DHT22;38455;52.710;6.502;2023-09-19T15:41:36;19.40;99.90
52555;DHT22;38455;52.710;6.502;2023-09-19T15:44:11;19.30;99.90
52555;DHT22;38455;52.710;6.502;2023-09-19T15:46:37;19.30;99.90
52555;DHT22;38455;52.710;6.502;2023-09-19T15:49:03;19.30;99.90
52555;DHT22;38455;52.710;6.502;2023-09-19T15:51:29;19.30;99.90
52555;DHT22;38455;52.710;6.502;2023-09-19T15:53:55;19.30;99.90
52555;DHT22;38455;52.710;6.502;2023-09-19T15:56:22;19.30;99.90
52555;DHT22;38455;52.710;6.502;2023-09-19T15:58:50;19.30;99.90
52555;DHT22;38455;52.710;6.502;2023-09-19T16:01:16;19.30;99.90
52555;DHT22;38455;52.710;6.502;2023-09-19T16:03:48;19.30;99.90
52555;DHT22;38455;52.710;6.502;2023-09-19T16:06:18;19.30;99.90
52555;DHT22;38455;52.710;6.502;2023-09-19T16:08:47;19.30;99.90
52555;DHT22;38455;52.710;6.502;2023-09-19T16:11:14;19.20;99.90
52555;DHT22;38455;52.710;6.502;2023-09-19T16:13:41;19.20;99.90
52555;DHT22;38455;52.710;6.502;2023-09-19T16:16:08;19.20;99.90
52555;DHT22;38455;52.710;6.502;2023-09-19T16:18:47;19.20;99.90
52555;DHT22;38455;52.710;6.502;2023-09-19T16:21:13;19.20;99.90
52555;DHT22;38455;52.710;6.502;2023-09-19T16:23:39;19.10;99.90
52555;DHT22;38455;52.710;6.502;2023-09-19T16:26:05;19.10;99.90
52555;DHT22;38455;52.710;6.502;2023-09-19T16:28:37;19.00;99.90
52555;DHT22;38455;52.710;6.502;2023-09-19T16:31:03;19.00;99.90
52555;DHT22;38455;52.710;6.502;2023-09-19T16:33:33;18.90;99.90
52555;DHT22;38455;52.710;6.502;2023-09-19T16:36:00;18.90;99.90
52555;DHT22;38455;52.710;6.502;2023-09-19T16:38:27;18.80;99.90